Terminal Aerodrome Forecast
Issued by NWS St Louis, MO

Home | Current Version | Previous Version | Text Only | Print | Product List | Glossary On
Versions: 1 2 3 4 5 6 7 8 9 10 11 12 13 14 15 16 17 18 19 20 21 22 23 24 25 26 27 28 29 30 31 32 33
287
FTUS43 KLSX 290305 AAA
TAFSTL
TAF AMD
KSTL 290305Z 2903/3006 05009KT P6SM OVC030
     FM291000 08010KT P6SM BKN015
     FM291400 08009KT 6SM -SHRA OVC010
     FM291800 09013KT P6SM OVC008
     FM300000 10013KT P6SM OVC015=

USA.gov is the U.S. government's official web portal to all federal, state and local government web resources and services.